Time;durP1;ratioP1;P1;durP2;ratioP2;P2;SDS_P1;SDS_P2;PMS_P1;PMS_P2;Temp;Humidity;BMP_temperature;BMP_pressure;BME280_temperature;BME280_humidity;BME280_pressure;Samples;Min_cycle;Max_cycle;Signal;HPM_P1;HPM_P2
2022/02/06 00:57:15;;;;;;;0.20;0.10;;;11.40;99.90;;;;;;25792101;22;1717722;-65
2022/02/06 01:07:18;;;;;;;0.20;0.10;;;11.40;99.90;;;;;;25624928;23;20332;-65
2022/02/06 01:17:28;;;;;;;0.20;0.10;;;11.60;99.90;;;;;;25676568;23;20213;-73
2022/02/06 01:27:40;;;;;;;0.20;0.10;;;11.60;99.90;;;;;;25705976;23;20208;-73
2022/02/06 01:37:52;;;;;;;0.20;0.10;;;11.50;99.90;;;;;;25707139;22;20199;-73
2022/02/06 02:09:17;;;;;;;0.20;0.10;;;11.30;99.90;;;;;;25711184;23;20194;-64
2022/02/06 02:19:49;;;;;;;0.20;0.10;;;11.50;99.90;;;;;;25709977;23;20161;-65
2022/02/06 02:30:38;;;;;;;0.20;0.10;;;11.40;99.90;;;;;;25709776;23;20189;-70
2022/02/06 02:51:07;;;;;;;0.20;0.10;;;11.20;99.90;;;;;;25712269;23;20180;-70
2022/02/06 03:01:19;;;;;;;0.20;0.10;;;11.20;99.90;;;;;;25710780;23;20670;-64
2022/02/06 03:11:25;;;;;;;0.20;0.10;;;11.20;99.90;;;;;;25708704;23;20196;-65
2022/02/06 03:21:30;;;;;;;0.20;0.10;;;11.10;99.90;;;;;;25710926;23;20510;-71
2022/02/06 03:31:36;;;;;;;0.20;0.10;;;11.10;99.90;;;;;;25711260;23;20521;-73
2022/02/06 03:41:53;;;;;;;0.20;0.10;;;11.10;99.90;;;;;;25718013;23;20222;-73
2022/02/06 03:51:58;;;;;;;0.20;0.10;;;11.10;99.90;;;;;;25716731;23;20189;-72
2022/02/06 04:02:03;;;;;;;0.20;0.10;;;11.00;99.90;;;;;;25715773;23;20196;-72
2022/02/06 04:12:11;;;;;;;0.20;0.00;;;10.80;99.90;;;;;;25716973;23;20170;-73
2022/02/06 04:22:15;;;;;;;0.20;0.00;;;10.50;99.90;;;;;;25713639;23;20646;-73
2022/02/06 04:32:20;;;;;;;0.20;0.07;;;10.20;99.90;;;;;;25716803;23;20495;-73
2022/02/06 04:42:36;;;;;;;0.20;0.00;;;10.30;99.90;;;;;;25715800;23;20199;-74
2022/02/06 04:53:09;;;;;;;0.20;0.00;;;10.30;99.90;;;;;;25715002;23;20224;-73
2022/02/06 05:34:24;;;;;;;0.20;0.10;;;10.40;99.90;;;;;;25704804;23;20173;-64
2022/02/06 05:44:27;;;;;;;0.20;0.10;;;10.40;99.90;;;;;;25710163;23;20192;-72
2022/02/06 05:54:33;;;;;;;0.20;0.10;;;10.10;99.90;;;;;;25709121;23;20666;-72
2022/02/06 06:04:37;;;;;;;0.20;0.00;;;9.90;99.90;;;;;;25712209;23;20193;-72
2022/02/06 06:14:44;;;;;;;4.10;3.80;;;10.00;99.90;;;;;;25711980;23;20177;-72
2022/02/06 06:24:53;;;;;;;1.60;1.50;;;9.90;99.90;;;;;;25709253;23;20185;-72
2022/02/06 06:35:00;;;;;;;0.20;0.00;;;9.80;99.90;;;;;;25710322;23;20542;-73
2022/02/06 06:45:04;;;;;;;0.20;0.10;;;9.40;99.90;;;;;;25711038;23;20223;-72
2022/02/06 06:55:10;;;;;;;0.20;0.10;;;9.00;99.90;;;;;;25709867;23;20220;-72
2022/02/06 07:05:14;;;;;;;0.20;0.10;;;9.10;99.90;;;;;;25713881;23;20641;-71
2022/02/06 07:15:19;;;;;;;0.20;0.10;;;9.20;99.90;;;;;;25719207;23;20166;-71
2022/02/06 07:25:25;;;;;;;0.20;0.10;;;9.10;99.90;;;;;;25718464;23;20213;-72
2022/02/06 07:35:30;;;;;;;0.20;0.10;;;8.90;99.90;;;;;;25718130;23;20204;-63
2022/02/06 07:45:36;;;;;;;0.20;0.10;;;8.90;99.90;;;;;;25715037;23;20192;-64
2022/02/06 07:55:41;;;;;;;0.20;0.20;;;8.80;99.90;;;;;;25711800;23;20213;-66
2022/02/06 08:05:45;;;;;;;0.20;0.10;;;9.00;99.90;;;;;;25713122;23;20498;-66
2022/02/06 08:15:50;;;;;;;0.20;0.10;;;9.30;99.90;;;;;;25712414;23;20204;-66
2022/02/06 08:25:53;;;;;;;0.20;0.10;;;9.10;99.90;;;;;;25711813;23;20623;-66
2022/02/06 08:35:59;;;;;;;0.20;0.10;;;9.40;99.90;;;;;;25714241;23;20170;-72
2022/02/06 08:46:03;;;;;;;0.20;0.10;;;9.70;99.90;;;;;;25712759;23;20186;-73
2022/02/06 08:56:08;;;;;;;0.20;0.10;;;10.10;99.90;;;;;;25767093;23;20538;-73
2022/02/06 09:06:13;;;;;;;0.20;0.10;;;9.80;99.90;;;;;;25835142;23;20181;-73
2022/02/06 09:16:18;;;;;;;0.20;0.10;;;9.90;99.90;;;;;;25834519;23;20200;-72
2022/02/06 09:26:22;;;;;;;0.27;0.27;;;10.10;99.90;;;;;;25805992;23;20223;-65
2022/02/06 09:36:28;;;;;;;0.20;0.10;;;10.40;99.90;;;;;;25832603;23;20598;-66
2022/02/06 09:46:33;;;;;;;0.20;0.10;;;10.90;99.90;;;;;;25803748;23;20661;-66
2022/02/06 09:56:47;;;;;;;0.20;0.10;;;11.40;99.90;;;;;;25803690;23;20263;-64
2022/02/06 10:06:57;;;;;;;0.20;0.10;;;11.80;99.90;;;;;;25829515;23;20192;-65
2022/02/06 10:17:02;;;;;;;0.20;0.10;;;12.40;99.90;;;;;;25830832;23;20169;-68
2022/02/06 10:27:18;;;;;;;0.20;0.03;;;12.60;99.90;;;;;;25831267;23;20195;-68
2022/02/06 10:37:25;;;;;;;0.50;0.40;;;12.60;99.90;;;;;;25830099;23;20153;-67
2022/02/06 10:47:33;;;;;;;0.20;0.10;;;12.80;99.90;;;;;;25831309;23;20671;-74
2022/02/06 10:57:53;;;;;;;0.20;0.10;;;13.60;99.90;;;;;;25827259;23;20661;-75
2022/02/06 11:08:00;;;;;;;0.20;0.00;;;13.80;99.90;;;;;;25801786;23;20633;-77
2022/02/06 11:18:11;;;;;;;0.20;0.10;;;14.40;99.90;;;;;;25802715;23;20165;-78
2022/02/06 11:28:16;;;;;;;0.20;0.10;;;14.60;99.90;;;;;;25828981;23;20483;-76
2022/02/06 11:48:47;;;;;;;0.20;0.10;;;15.80;99.90;;;;;;25829754;23;20681;-79
2022/02/06 11:58:53;;;;;;;0.20;0.10;;;16.40;99.90;;;;;;25826559;23;20197;-66
2022/02/06 12:09:18;;;;;;;0.20;0.10;;;16.70;99.90;;;;;;25801400;23;20283;-68
2022/02/06 12:19:32;;;;;;;0.20;0.10;;;17.90;99.90;;;;;;25832903;23;20168;-68
2022/02/06 12:29:41;;;;;;;0.20;0.10;;;17.60;99.90;;;;;;25834832;23;20184;-69
2022/02/06 12:39:46;;;;;;;0.20;0.10;;;18.20;99.90;;;;;;25834258;23;20172;-68
2022/02/06 12:49:49;;;;;;;0.20;0.00;;;18.40;99.90;;;;;;25833865;23;20189;-77
2022/02/06 12:59:55;;;;;;;0.20;0.10;;;18.70;99.90;;;;;;25829577;23;20203;-79
2022/02/06 13:10:04;;;;;;;0.20;0.00;;;18.80;99.90;;;;;;25829028;23;20514;-66
2022/02/06 13:20:24;;;;;;;0.20;0.10;;;19.80;99.90;;;;;;25830087;23;20305;-67
2022/02/06 13:40:54;;;;;;;0.20;0.10;;;19.80;99.90;;;;;;25799506;23;20187;-68
2022/02/06 13:51:01;;;;;;;0.20;0.00;;;20.00;99.90;;;;;;25825614;23;20549;-67
2022/02/06 14:01:08;;;;;;;0.20;0.00;;;20.80;99.90;;;;;;25826726;23;20201;-69
2022/02/06 14:11:26;;;;;;;0.20;0.00;;;21.30;99.90;;;;;;25832023;23;20185;-68
2022/02/06 14:21:43;;;;;;;0.20;0.10;;;20.20;99.90;;;;;;25830352;23;20279;-68
2022/02/06 14:31:47;;;;;;;0.20;0.10;;;19.90;99.90;;;;;;25831413;23;20184;-67
2022/02/06 14:42:00;;;;;;;0.20;0.10;;;20.60;99.90;;;;;;25832327;23;20603;-67
2022/02/06 14:52:06;;;;;;;0.20;0.10;;;19.80;99.90;;;;;;25831530;23;20230;-67
2022/02/06 15:02:11;;;;;;;0.20;0.10;;;19.10;99.90;;;;;;25800654;23;20203;-68
2022/02/06 15:12:15;;;;;;;0.20;0.07;;;18.70;99.90;;;;;;25824417;23;20191;-67
2022/02/06 15:22:20;;;;;;;0.20;0.00;;;18.60;99.90;;;;;;25816334;23;20208;-67
2022/02/06 15:32:25;;;;;;;0.20;0.07;;;18.10;99.90;;;;;;25759101;22;20209;-67
2022/02/06 15:42:30;;;;;;;0.20;0.10;;;17.40;99.90;;;;;;25795943;23;20224;-67
2022/02/06 15:52:34;;;;;;;0.20;0.00;;;16.00;99.90;;;;;;25816519;23;20581;-67
2022/02/06 16:02:40;;;;;;;0.20;0.10;;;15.70;99.90;;;;;;25796969;23;20685;-67
2022/02/06 16:12:44;;;;;;;0.20;0.10;;;15.10;99.90;;;;;;25755860;23;20665;-77
2022/02/06 16:22:53;;;;;;;0.20;0.00;;;14.50;99.90;;;;;;25825769;23;20257;-75
2022/02/06 16:32:57;;;;;;;0.20;0.10;;;14.00;99.90;;;;;;25796110;23;20236;-65
2022/02/06 16:43:02;;;;;;;0.20;0.10;;;13.90;99.90;;;;;;25820911;23;20200;-66
2022/02/06 16:53:06;;;;;;;0.20;0.00;;;13.60;99.90;;;;;;25820748;23;20201;-72
2022/02/06 17:03:11;;;;;;;0.20;0.10;;;13.40;99.90;;;;;;25821038;23;20669;-75
2022/02/06 17:13:17;;;;;;;0.20;0.10;;;13.20;99.90;;;;;;25819526;23;20284;-74
2022/02/06 17:23:23;;;;;;;0.20;0.10;;;13.00;99.90;;;;;;25793283;23;20287;-65
2022/02/06 17:33:26;;;;;;;0.20;0.10;;;12.80;99.90;;;;;;25793438;23;20243;-68
2022/02/06 17:43:32;;;;;;;0.20;0.10;;;12.80;99.90;;;;;;25821139;23;20235;-69
2022/02/06 17:53:35;;;;;;;0.20;0.07;;;12.70;99.90;;;;;;25819378;23;20203;-66
2022/02/06 18:03:41;;;;;;;0.20;0.10;;;12.70;99.90;;;;;;25817396;23;20321;-68
2022/02/06 18:13:45;;;;;;;0.20;0.10;;;11.70;99.90;;;;;;25819810;23;20599;-68
2022/02/06 18:23:51;;;;;;;0.20;0.10;;;11.40;99.90;;;;;;25819015;23;20247;-71
2022/02/06 18:34:14;;;;;;;0.20;0.10;;;11.20;99.90;;;;;;25820593;23;20208;-72
2022/02/06 18:44:19;;;;;;;0.20;0.10;;;11.20;99.90;;;;;;25791763;23;20227;-73
2022/02/06 18:54:25;;;;;;;0.20;0.10;;;10.90;99.90;;;;;;25819184;23;20197;-72
2022/02/06 19:04:31;;;;;;;0.20;0.20;;;11.00;99.90;;;;;;25825425;23;20247;-72
2022/02/06 19:14:35;;;;;;;0.20;0.13;;;11.50;99.90;;;;;;25826774;23;20665;-73
2022/02/06 19:24:40;;;;;;;0.20;0.10;;;11.50;99.90;;;;;;25799687;23;20243;-75
2022/02/06 19:34:48;;;;;;;0.20;0.10;;;11.40;99.90;;;;;;25820315;23;20525;-72
2022/02/06 19:44:53;;;;;;;0.20;0.10;;;11.30;99.90;;;;;;25826016;23;20204;-74
2022/02/06 19:55:01;;;;;;;0.20;0.13;;;11.00;99.90;;;;;;25825516;23;20510;-68
2022/02/06 20:05:07;;;;;;;0.20;0.10;;;10.50;99.90;;;;;;25824821;23;20279;-68
2022/02/06 20:15:12;;;;;;;0.20;0.10;;;10.40;99.90;;;;;;25825087;23;20417;-69
2022/02/06 20:25:18;;;;;;;0.20;0.10;;;10.40;99.90;;;;;;25827929;23;20216;-68
2022/02/06 20:35:24;;;;;;;0.20;0.10;;;10.40;99.90;;;;;;25828116;23;20536;-68
2022/02/06 20:45:30;;;;;;;0.20;0.10;;;10.30;99.90;;;;;;25776198;23;20209;-69
2022/02/06 20:55:34;;;;;;;0.20;0.10;;;10.30;99.90;;;;;;25827727;23;20541;-66
2022/02/06 21:05:39;;;;;;;0.20;0.10;;;10.30;99.90;;;;;;25803167;22;20682;-66
2022/02/06 21:15:43;;;;;;;0.20;0.10;;;10.40;99.90;;;;;;25829050;23;20208;-68
2022/02/06 21:25:49;;;;;;;0.20;0.10;;;10.40;99.90;;;;;;25826885;23;20201;-76
2022/02/06 21:35:54;;;;;;;0.20;0.10;;;10.40;99.90;;;;;;25827147;23;20196;-75
2022/02/06 21:45:59;;;;;;;2.20;2.10;;;10.20;99.90;;;;;;25829806;23;20212;-65
2022/02/06 21:56:04;;;;;;;0.20;0.10;;;9.80;99.90;;;;;;25829409;23;20686;-66
2022/02/06 22:06:14;;;;;;;0.20;0.10;;;9.70;99.90;;;;;;25801986;23;20769;-66
2022/02/06 22:37:04;;;;;;;0.20;0.10;;;9.20;99.90;;;;;;25827409;23;20240;-70
2022/02/06 22:47:09;;;;;;;0.20;0.10;;;9.20;99.90;;;;;;25828294;23;20228;-69
2022/02/06 22:57:13;;;;;;;0.20;0.10;;;9.10;99.90;;;;;;25801124;23;20228;-68
2022/02/06 23:07:18;;;;;;;0.20;0.10;;;8.90;99.90;;;;;;25828110;23;20598;-69
2022/02/06 23:17:22;;;;;;;0.20;0.07;;;9.00;99.90;;;;;;25828570;23;20669;-68
2022/02/06 23:27:28;;;;;;;0.20;0.10;;;9.00;99.90;;;;;;25827973;23;20255;-68
2022/02/06 23:37:31;;;;;;;0.40;0.37;;;8.90;99.90;;;;;;25827524;22;20770;-67
2022/02/06 23:47:41;;;;;;;0.20;0.10;;;8.80;99.90;;;;;;25804593;22;20804;-67
2022/02/06 23:57:51;;;;;;;0.20;0.10;;;8.60;99.90;;;;;;25835754;22;20635;-68
